• Join FlightAware (Why Join?)
  • Login
  • US Flag 
01:00PM EDT


 

Airport Tracker/Info


-or-


 

Live Flight TrackerFlight Track Log ✈ N560HM ✈ 15-Mar-2014 ✈ KTEB - KAGC

Flight Track Log - Related Links

Times and Time Zones

All times are in EDT time to prevent confusion due to time zone crossing. See the N560HM flight status page for this flight to view local times or setup timezone preferences in your user account.

Time Position Orientation Groundspeed Altitude Reporting Facility
EDT Latitude Longitude Course Direction KTS MPH feet Rate Location/Type
09:05AM 40.8167 -74.1500 270° West 206 237 1,700  Level New York TRACON
09:06AM 40.8333 -74.2167 288° West 215 247 4,000 2,580 Climbing New York TRACON
09:07AM 40.8500 -74.3000 285° West 228 262 6,900 3,180 Climbing New York TRACON
09:08AM 40.8333 -74.3833 255° West 217 250 10,800 3,180 Climbing New York TRACON
09:09AM 40.8333 -74.4667 270° West 243 280 13,600 2,460 Climbing New York TRACON
09:10AM 40.8167 -74.6852 270° West  Level FlightAware Approximate
09:10AM 40.8333 -74.5667 270° West 266 306 15,800  Level New York TRACON
09:11AM 40.8272 -74.6433 264° West 288 331 16,000 60 Climbing New York Center
09:12AM 40.8217 -74.7500 266° West 290 334 16,000 360 Level New York Center
09:13AM 40.8078 -74.8533 260° West 290 334 16,800 1,560 Climbing New York Center
09:14AM 40.7797 -74.9419 247° West 281 323 19,200 2,520 Climbing New York Center
09:15AM 40.7575 -75.0339 252° West 274 315 21,900 2,820 Climbing New York Center
09:16AM 40.7333 -75.1256 251° West 269 310 24,800 2,040 Climbing New York Center
09:17AM 40.7069 -75.2194 250° West 269 310 26,000 540 Climbing New York Center
09:18AM 40.6758 -75.3269 249° West 291 335 26,000  Level New York Center
09:19AM 40.6464 -75.4372 251° West 309 356 26,000  Level New York Center
09:20AM 40.6150 -75.5472 249° West 320 368 26,000  Level New York Center
09:21AM 40.5833 -75.6569 249° West 325 374 26,000  Level New York Center
09:22AM 40.5517 -75.7667 249° West 325 374 26,000  Level New York Center
09:23AM 40.5219 -75.8792 251° West 325 374 26,000  Level New York Center
09:24AM 40.4833 -75.9992 247° West 325 374 26,000  Level New York Center
09:25AM 40.4514 -76.1086 249° West 325 374 26,000  Level New York Center
09:26AM 40.4192 -76.2206 249° West 325 374 26,000  Level New York Center
09:27AM 40.3889 -76.3300 250° West 325 374 26,000  Level New York Center
09:28AM 40.3631 -76.4397 253° West 320 368 26,000  Level New York Center
09:29AM 40.3325 -76.5542 251° West 320 368 26,000  Level New York Center
09:30AM 40.3061 -76.6664 253° West 320 368 26,000  Level New York Center
09:31AM 40.2753 -76.7781 250° West 325 374 26,000  Level New York Center
09:32AM 40.2486 -76.8928 253° West 325 374 26,000  Level New York Center
09:33AM 40.2175 -77.0069 250° West 330 380 26,000  Level New York Center
09:34AM 40.1906 -77.1214 253° West 335 386 26,000  Level New York Center
09:35AM 40.1592 -77.2408 251° West 341 392 26,000 -480 Level New York Center
09:36AM 40.1347 -77.3417 252° West 341 392 25,100 -1,200 Descending New York Center
09:38AM 40.0611 -77.6139 251° West 323 372 22,000 -900 Descending Cleveland Center
09:39AM 40.0331 -77.7225 251° West 319 367 22,000  Level Cleveland Center
09:40AM 40.0044 -77.8306 251° West 318 366 22,000  Level Cleveland Center
09:41AM 39.9756 -77.9375 251° West 318 366 22,000  Level Cleveland Center
09:42AM 39.9731 -78.0681 269° West 307 353 22,000  Level Cleveland Center
09:43AM 39.9775 -78.1797 273° West 307 353 22,000  Level Cleveland Center
09:44AM 39.9928 -78.2811 281° West 310 357 22,000  Level Cleveland Center
09:45AM 40.0092 -78.3919 281° West 311 358 22,000 -780 Level Cleveland Center
09:46AM 40.0286 -78.5219 281° West 311 358 20,500 -1,440 Descending Cleveland Center
09:47AM 40.0425 -78.6244 280° West 297 342 19,100 -1,500 Descending Cleveland Center
09:48AM 40.0583 -78.7314 281° West 297 342 17,500 -1,500 Descending Cleveland Center
09:49AM 40.0739 -78.8392 281° West 298 343 16,100 -1,440 Descending Cleveland Center
09:50AM 40.0819 -78.9028 279° West 290 334 15,300 -1,260 Descending Cleveland Center
09:50AM 40.0883 -78.9397 283° West 293 337 14,800 -1,440 Descending Cleveland Center
09:51AM 40.0928 -78.9781 279° West 278 320 14,300 -1,320 Descending Cleveland Center
09:51AM 40.1025 -79.0375 282° West 279 321 13,500 -1,320 Descending Cleveland Center
09:52AM 40.1058 -79.0728 277° West 269 310 13,000 -1,380 Descending Cleveland Center
09:52AM 40.1158 -79.1339 282° West 274 315 12,100 -1,320 Descending Cleveland Center
09:53AM 40.1186 -79.1700 276° West 272 313 11,700 -1,380 Descending Cleveland Center
09:53AM 40.1314 -79.2467 282° West 267 307 10,700 -1,200 Descending Cleveland Center
09:54AM 40.1322 -79.2594 275° West 254 292 10,500 -1,020 Descending Cleveland Center
09:54AM 40.1411 -79.3203 281° West 242 278 9,700 -1,140 Descending Cleveland Center
09:55AM 40.1422 -79.3400 274° West 227 261 9,400 -1,200 Descending Cleveland Center
09:55AM 40.1525 -79.4031 282° West 237 273 8,500 -1,440 Descending Cleveland Center
09:56AM 40.1556 -79.4294 279° West 230 265 8,000 -1,380 Descending Cleveland Center
09:56AM 40.1642 -79.4853 281° West 235 270 7,100 -1,200 Descending Cleveland Center
09:57AM 40.1758 -79.5683 280° West 235 270 5,700 -1,080 Descending Cleveland Center
09:59AM 40.2150 -79.6439 304° West 212 244 5,000 -540 Descending Cleveland Center
10:00AM 40.2439 -79.7047 302° West 203 234 4,600 -900 Descending Cleveland Center
10:01AM 40.2778 -79.7567 311° West 194 223 3,200 -840 Descending Cleveland Center
10:02AM 40.3164 -79.8008 319° Northwest 191 220 3,000 -240 Descending Cleveland Center
10:03AM 40.3439 -79.8408 312° West 168 193 2,800 -540 Descending Cleveland Center
10:04AM 40.3550 -79.8819 290° West 140 161 1,900 -840 Descending Cleveland Center
10:05AM 40.3544 -79.9200 269° West 117 135 1,200 -720 Descending Cleveland Center
10:07AM 40.3500 -79.9167 123° Southeast  Level FlightAware Approximate